sensor_id;sensor_type;location;lat;lon;timestamp;P1;durP1;ratioP1;P2;durP2;ratioP2
4023;SDS011;2026;51.002;13.668;2024-01-27T00:03:16;6.10;;;2.57;;
4023;SDS011;2026;51.002;13.668;2024-01-27T00:08:19;6.87;;;2.33;;
4023;SDS011;2026;51.002;13.668;2024-01-27T00:13:24;8.87;;;2.40;;
4023;SDS011;2026;51.002;13.668;2024-01-27T00:18:27;9.80;;;2.00;;
4023;SDS011;2026;51.002;13.668;2024-01-27T00:23:30;6.70;;;2.70;;
4023;SDS011;2026;51.002;13.668;2024-01-27T00:28:35;7.30;;;2.40;;
4023;SDS011;2026;51.002;13.668;2024-01-27T00:33:37;4.70;;;2.10;;
4023;SDS011;2026;51.002;13.668;2024-01-27T00:38:41;7.00;;;1.73;;
4023;SDS011;2026;51.002;13.668;2024-01-27T00:43:45;6.30;;;2.27;;
4023;SDS011;2026;51.002;13.668;2024-01-27T00:48:48;4.97;;;1.73;;
4023;SDS011;2026;51.002;13.668;2024-01-27T00:53:51;4.40;;;1.93;;
4023;SDS011;2026;51.002;13.668;2024-01-27T00:58:56;4.20;;;2.00;;
4023;SDS011;2026;51.002;13.668;2024-01-27T01:03:59;7.63;;;2.07;;
4023;SDS011;2026;51.002;13.668;2024-01-27T01:09:02;7.60;;;2.00;;
4023;SDS011;2026;51.002;13.668;2024-01-27T01:14:07;8.60;;;1.90;;
4023;SDS011;2026;51.002;13.668;2024-01-27T01:19:10;4.27;;;1.80;;
4023;SDS011;2026;51.002;13.668;2024-01-27T01:24:13;8.07;;;2.20;;
4023;SDS011;2026;51.002;13.668;2024-01-27T01:29:17;5.20;;;1.90;;
4023;SDS011;2026;51.002;13.668;2024-01-27T01:34:20;5.33;;;1.83;;
4023;SDS011;2026;51.002;13.668;2024-01-27T01:39:23;6.43;;;1.70;;
4023;SDS011;2026;51.002;13.668;2024-01-27T01:44:29;2.93;;;2.13;;
4023;SDS011;2026;51.002;13.668;2024-01-27T01:49:33;3.20;;;1.50;;
4023;SDS011;2026;51.002;13.668;2024-01-27T01:54:36;9.13;;;2.10;;
4023;SDS011;2026;51.002;13.668;2024-01-27T01:59:41;5.93;;;1.87;;
4023;SDS011;2026;51.002;13.668;2024-01-27T02:04:45;11.50;;;2.40;;
4023;SDS011;2026;51.002;13.668;2024-01-27T02:09:48;6.07;;;2.43;;
4023;SDS011;2026;51.002;13.668;2024-01-27T02:14:52;6.33;;;2.10;;
4023;SDS011;2026;51.002;13.668;2024-01-27T02:19:55;7.00;;;1.90;;
4023;SDS011;2026;51.002;13.668;2024-01-27T02:24:59;6.50;;;1.80;;
4023;SDS011;2026;51.002;13.668;2024-01-27T02:30:03;6.83;;;3.37;;
4023;SDS011;2026;51.002;13.668;2024-01-27T02:35:06;6.20;;;1.87;;
4023;SDS011;2026;51.002;13.668;2024-01-27T02:40:11;9.50;;;1.90;;
4023;SDS011;2026;51.002;13.668;2024-01-27T02:45:16;8.63;;;2.17;;
4023;SDS011;2026;51.002;13.668;2024-01-27T02:50:19;7.33;;;1.93;;
4023;SDS011;2026;51.002;13.668;2024-01-27T02:55:23;3.70;;;2.00;;
4023;SDS011;2026;51.002;13.668;2024-01-27T03:00:26;4.80;;;1.93;;
4023;SDS011;2026;51.002;13.668;2024-01-27T03:05:29;12.03;;;2.10;;
4023;SDS011;2026;51.002;13.668;2024-01-27T03:10:33;7.90;;;2.53;;
4023;SDS011;2026;51.002;13.668;2024-01-27T03:15:36;6.90;;;1.90;;
4023;SDS011;2026;51.002;13.668;2024-01-27T03:20:40;10.53;;;2.10;;
4023;SDS011;2026;51.002;13.668;2024-01-27T03:25:44;11.43;;;2.90;;
4023;SDS011;2026;51.002;13.668;2024-01-27T03:30:47;10.13;;;2.30;;
4023;SDS011;2026;51.002;13.668;2024-01-27T03:35:50;9.00;;;2.20;;
4023;SDS011;2026;51.002;13.668;2024-01-27T03:40:55;6.87;;;2.17;;
4023;SDS011;2026;51.002;13.668;2024-01-27T03:45:57;9.33;;;2.13;;
4023;SDS011;2026;51.002;13.668;2024-01-27T03:51:00;14.23;;;2.80;;
4023;SDS011;2026;51.002;13.668;2024-01-27T03:56:05;5.67;;;2.60;;
4023;SDS011;2026;51.002;13.668;2024-01-27T04:01:09;15.97;;;2.60;;
4023;SDS011;2026;51.002;13.668;2024-01-27T04:06:12;8.37;;;2.70;;
4023;SDS011;2026;51.002;13.668;2024-01-27T04:11:22;11.47;;;3.20;;
4023;SDS011;2026;51.002;13.668;2024-01-27T04:16:25;23.00;;;5.03;;
4023;SDS011;2026;51.002;13.668;2024-01-27T04:21:28;8.37;;;3.60;;
4023;SDS011;2026;51.002;13.668;2024-01-27T04:26:32;11.63;;;3.03;;
4023;SDS011;2026;51.002;13.668;2024-01-27T04:31:39;8.00;;;2.10;;
4023;SDS011;2026;51.002;13.668;2024-01-27T04:36:42;9.57;;;2.17;;
4023;SDS011;2026;51.002;13.668;2024-01-27T04:41:46;9.20;;;2.50;;
4023;SDS011;2026;51.002;13.668;2024-01-27T04:46:49;8.37;;;2.00;;
4023;SDS011;2026;51.002;13.668;2024-01-27T04:51:52;9.00;;;2.23;;
4023;SDS011;2026;51.002;13.668;2024-01-27T04:56:56;11.83;;;2.57;;
4023;SDS011;2026;51.002;13.668;2024-01-27T05:01:59;11.53;;;2.03;;
4023;SDS011;2026;51.002;13.668;2024-01-27T05:07:02;6.60;;;2.07;;
4023;SDS011;2026;51.002;13.668;2024-01-27T05:12:07;12.10;;;2.40;;
4023;SDS011;2026;51.002;13.668;2024-01-27T05:17:10;11.33;;;2.80;;
4023;SDS011;2026;51.002;13.668;2024-01-27T05:22:13;8.63;;;2.37;;
4023;SDS011;2026;51.002;13.668;2024-01-27T05:27:17;6.37;;;2.30;;
4023;SDS011;2026;51.002;13.668;2024-01-27T05:32:20;8.50;;;2.53;;
4023;SDS011;2026;51.002;13.668;2024-01-27T05:37:23;17.33;;;3.03;;
4023;SDS011;2026;51.002;13.668;2024-01-27T05:42:27;5.73;;;2.20;;
4023;SDS011;2026;51.002;13.668;2024-01-27T05:47:30;15.70;;;3.00;;
4023;SDS011;2026;51.002;13.668;2024-01-27T05:52:34;8.93;;;2.37;;
4023;SDS011;2026;51.002;13.668;2024-01-27T05:57:38;9.40;;;1.90;;
4023;SDS011;2026;51.002;13.668;2024-01-27T06:02:41;6.10;;;2.23;;
4023;SDS011;2026;51.002;13.668;2024-01-27T06:07:44;9.17;;;2.30;;
4023;SDS011;2026;51.002;13.668;2024-01-27T06:12:50;13.60;;;2.03;;
4023;SDS011;2026;51.002;13.668;2024-01-27T06:17:53;6.57;;;2.30;;
4023;SDS011;2026;51.002;13.668;2024-01-27T06:22:56;6.23;;;2.33;;
4023;SDS011;2026;51.002;13.668;2024-01-27T06:28:01;8.97;;;2.10;;
4023;SDS011;2026;51.002;13.668;2024-01-27T06:33:04;6.50;;;2.77;;
4023;SDS011;2026;51.002;13.668;2024-01-27T06:38:07;13.97;;;2.80;;
4023;SDS011;2026;51.002;13.668;2024-01-27T06:43:12;11.47;;;2.60;;
4023;SDS011;2026;51.002;13.668;2024-01-27T06:48:16;9.27;;;2.23;;
4023;SDS011;2026;51.002;13.668;2024-01-27T06:53:19;9.47;;;2.10;;
4023;SDS011;2026;51.002;13.668;2024-01-27T06:58:23;8.57;;;2.87;;
4023;SDS011;2026;51.002;13.668;2024-01-27T07:03:26;7.03;;;1.90;;
4023;SDS011;2026;51.002;13.668;2024-01-27T07:08:29;11.43;;;3.13;;
4023;SDS011;2026;51.002;13.668;2024-01-27T07:13:40;10.17;;;1.90;;
4023;SDS011;2026;51.002;13.668;2024-01-27T07:18:43;11.10;;;2.90;;
4023;SDS011;2026;51.002;13.668;2024-01-27T07:23:46;8.37;;;2.30;;
4023;SDS011;2026;51.002;13.668;2024-01-27T07:28:51;6.13;;;2.40;;
4023;SDS011;2026;51.002;13.668;2024-01-27T07:33:54;7.27;;;2.07;;
4023;SDS011;2026;51.002;13.668;2024-01-27T07:38:57;10.73;;;2.77;;
4023;SDS011;2026;51.002;13.668;2024-01-27T07:44:07;10.13;;;2.57;;
4023;SDS011;2026;51.002;13.668;2024-01-27T07:49:11;10.27;;;2.50;;
4023;SDS011;2026;51.002;13.668;2024-01-27T07:54:16;9.43;;;2.47;;
4023;SDS011;2026;51.002;13.668;2024-01-27T07:59:20;12.47;;;2.90;;
4023;SDS011;2026;51.002;13.668;2024-01-27T08:04:23;13.57;;;2.63;;
4023;SDS011;2026;51.002;13.668;2024-01-27T08:09:26;14.43;;;2.83;;
4023;SDS011;2026;51.002;13.668;2024-01-27T08:14:30;8.80;;;2.73;;
4023;SDS011;2026;51.002;13.668;2024-01-27T08:19:34;15.83;;;2.57;;
4023;SDS011;2026;51.002;13.668;2024-01-27T08:24:37;13.43;;;3.13;;
4023;SDS011;2026;51.002;13.668;2024-01-27T08:29:41;14.57;;;3.60;;
4023;SDS011;2026;51.002;13.668;2024-01-27T08:34:44;11.83;;;2.30;;
4023;SDS011;2026;51.002;13.668;2024-01-27T08:39:49;11.17;;;2.93;;
4023;SDS011;2026;51.002;13.668;2024-01-27T08:44:54;22.27;;;5.13;;
4023;SDS011;2026;51.002;13.668;2024-01-27T08:49:57;15.93;;;2.40;;
4023;SDS011;2026;51.002;13.668;2024-01-27T08:55:00;15.70;;;3.10;;
4023;SDS011;2026;51.002;13.668;2024-01-27T09:00:06;14.30;;;3.00;;
4023;SDS011;2026;51.002;13.668;2024-01-27T09:05:10;10.90;;;2.80;;
4023;SDS011;2026;51.002;13.668;2024-01-27T09:10:14;9.63;;;3.40;;
4023;SDS011;2026;51.002;13.668;2024-01-27T09:15:18;13.53;;;3.00;;
4023;SDS011;2026;51.002;13.668;2024-01-27T09:20:21;11.40;;;2.63;;
4023;SDS011;2026;51.002;13.668;2024-01-27T09:25:24;8.83;;;2.50;;
4023;SDS011;2026;51.002;13.668;2024-01-27T09:30:30;9.10;;;2.77;;
4023;SDS011;2026;51.002;13.668;2024-01-27T09:35:38;16.00;;;3.23;;
4023;SDS011;2026;51.002;13.668;2024-01-27T09:40:41;12.63;;;3.07;;
4023;SDS011;2026;51.002;13.668;2024-01-27T09:45:45;9.97;;;2.90;;
4023;SDS011;2026;51.002;13.668;2024-01-27T09:50:49;10.13;;;2.97;;
4023;SDS011;2026;51.002;13.668;2024-01-27T09:55:55;10.80;;;3.27;;
4023;SDS011;2026;51.002;13.668;2024-01-27T10:01:01;15.07;;;3.80;;
4023;SDS011;2026;51.002;13.668;2024-01-27T10:06:05;9.30;;;3.30;;
4023;SDS011;2026;51.002;13.668;2024-01-27T10:11:11;12.20;;;3.40;;
4023;SDS011;2026;51.002;13.668;2024-01-27T10:16:18;15.30;;;3.80;;
4023;SDS011;2026;51.002;13.668;2024-01-27T10:21:21;15.70;;;3.80;;
4023;SDS011;2026;51.002;13.668;2024-01-27T10:26:26;10.07;;;3.57;;
4023;SDS011;2026;51.002;13.668;2024-01-27T10:31:34;14.60;;;3.90;;
4023;SDS011;2026;51.002;13.668;2024-01-27T10:36:38;8.97;;;3.10;;
4023;SDS011;2026;51.002;13.668;2024-01-27T10:41:44;9.73;;;3.73;;
4023;SDS011;2026;51.002;13.668;2024-01-27T10:46:49;12.93;;;4.10;;
4023;SDS011;2026;51.002;13.668;2024-01-27T10:51:53;10.77;;;4.07;;
4023;SDS011;2026;51.002;13.668;2024-01-27T10:56:58;19.40;;;3.57;;
4023;SDS011;2026;51.002;13.668;2024-01-27T11:02:05;14.87;;;4.00;;
4023;SDS011;2026;51.002;13.668;2024-01-27T11:07:15;13.87;;;4.00;;
4023;SDS011;2026;51.002;13.668;2024-01-27T11:12:19;11.40;;;4.70;;
4023;SDS011;2026;51.002;13.668;2024-01-27T11:17:25;15.20;;;3.43;;
4023;SDS011;2026;51.002;13.668;2024-01-27T11:22:28;16.03;;;3.77;;
4023;SDS011;2026;51.002;13.668;2024-01-27T11:27:32;12.43;;;4.30;;
4023;SDS011;2026;51.002;13.668;2024-01-27T11:32:37;15.73;;;4.80;;
4023;SDS011;2026;51.002;13.668;2024-01-27T11:37:40;12.90;;;3.87;;
4023;SDS011;2026;51.002;13.668;2024-01-27T11:42:53;12.97;;;3.60;;
4023;SDS011;2026;51.002;13.668;2024-01-27T11:47:59;8.93;;;3.77;;
4023;SDS011;2026;51.002;13.668;2024-01-27T11:53:03;16.67;;;3.70;;
4023;SDS011;2026;51.002;13.668;2024-01-27T11:58:11;12.97;;;4.50;;
4023;SDS011;2026;51.002;13.668;2024-01-27T12:03:15;9.10;;;3.53;;
4023;SDS011;2026;51.002;13.668;2024-01-27T12:08:18;15.30;;;3.17;;
4023;SDS011;2026;51.002;13.668;2024-01-27T12:13:21;12.53;;;3.30;;
4023;SDS011;2026;51.002;13.668;2024-01-27T12:18:26;8.50;;;3.37;;
4023;SDS011;2026;51.002;13.668;2024-01-27T12:23:31;12.10;;;3.90;;
4023;SDS011;2026;51.002;13.668;2024-01-27T12:28:34;19.43;;;3.90;;
4023;SDS011;2026;51.002;13.668;2024-01-27T12:33:40;7.70;;;3.00;;
4023;SDS011;2026;51.002;13.668;2024-01-27T12:38:46;12.57;;;3.03;;
4023;SDS011;2026;51.002;13.668;2024-01-27T12:43:49;13.63;;;3.47;;
4023;SDS011;2026;51.002;13.668;2024-01-27T12:48:54;10.10;;;3.10;;
4023;SDS011;2026;51.002;13.668;2024-01-27T12:53:57;12.77;;;3.10;;
4023;SDS011;2026;51.002;13.668;2024-01-27T12:59:00;10.80;;;3.10;;
4023;SDS011;2026;51.002;13.668;2024-01-27T13:04:04;12.00;;;3.00;;
4023;SDS011;2026;51.002;13.668;2024-01-27T13:09:08;10.93;;;3.40;;
4023;SDS011;2026;51.002;13.668;2024-01-27T13:14:14;10.30;;;3.03;;
4023;SDS011;2026;51.002;13.668;2024-01-27T13:19:20;12.83;;;3.77;;
4023;SDS011;2026;51.002;13.668;2024-01-27T13:24:23;13.07;;;3.10;;
4023;SDS011;2026;51.002;13.668;2024-01-27T13:29:27;12.10;;;3.47;;
4023;SDS011;2026;51.002;13.668;2024-01-27T13:34:31;9.60;;;2.50;;
4023;SDS011;2026;51.002;13.668;2024-01-27T13:39:35;11.13;;;3.37;;
4023;SDS011;2026;51.002;13.668;2024-01-27T13:44:38;7.90;;;2.90;;
4023;SDS011;2026;51.002;13.668;2024-01-27T13:49:43;9.13;;;2.97;;
4023;SDS011;2026;51.002;13.668;2024-01-27T13:54:47;12.77;;;3.47;;
4023;SDS011;2026;51.002;13.668;2024-01-27T13:59:51;14.00;;;3.03;;
4023;SDS011;2026;51.002;13.668;2024-01-27T14:04:55;11.83;;;3.40;;
4023;SDS011;2026;51.002;13.668;2024-01-27T14:09:58;12.53;;;3.50;;
4023;SDS011;2026;51.002;13.668;2024-01-27T14:15:03;11.47;;;3.80;;
4023;SDS011;2026;51.002;13.668;2024-01-27T14:20:10;6.60;;;2.70;;
4023;SDS011;2026;51.002;13.668;2024-01-27T14:25:15;9.53;;;2.80;;
4023;SDS011;2026;51.002;13.668;2024-01-27T14:30:18;6.87;;;3.10;;
4023;SDS011;2026;51.002;13.668;2024-01-27T14:35:22;13.97;;;3.10;;
4023;SDS011;2026;51.002;13.668;2024-01-27T14:40:26;12.90;;;3.70;;
4023;SDS011;2026;51.002;13.668;2024-01-27T14:45:29;20.10;;;3.83;;
4023;SDS011;2026;51.002;13.668;2024-01-27T14:50:33;11.00;;;3.30;;
4023;SDS011;2026;51.002;13.668;2024-01-27T14:55:36;12.93;;;3.07;;
4023;SDS011;2026;51.002;13.668;2024-01-27T15:00:39;8.87;;;2.60;;
4023;SDS011;2026;51.002;13.668;2024-01-27T15:05:44;12.90;;;3.50;;
4023;SDS011;2026;51.002;13.668;2024-01-27T15:10:47;8.63;;;3.10;;
4023;SDS011;2026;51.002;13.668;2024-01-27T15:15:50;7.57;;;2.80;;
4023;SDS011;2026;51.002;13.668;2024-01-27T15:20:55;13.00;;;2.90;;
4023;SDS011;2026;51.002;13.668;2024-01-27T15:25:57;8.20;;;2.67;;
4023;SDS011;2026;51.002;13.668;2024-01-27T15:31:03;12.57;;;3.87;;
4023;SDS011;2026;51.002;13.668;2024-01-27T15:36:07;6.63;;;3.00;;
4023;SDS011;2026;51.002;13.668;2024-01-27T15:41:10;10.53;;;3.53;;
4023;SDS011;2026;51.002;13.668;2024-01-27T15:46:14;13.33;;;3.37;;
4023;SDS011;2026;51.002;13.668;2024-01-27T15:51:18;9.63;;;2.77;;
4023;SDS011;2026;51.002;13.668;2024-01-27T15:56:21;10.27;;;3.30;;
4023;SDS011;2026;51.002;13.668;2024-01-27T16:01:24;13.00;;;3.57;;
4023;SDS011;2026;51.002;13.668;2024-01-27T16:06:28;9.60;;;3.47;;
4023;SDS011;2026;51.002;13.668;2024-01-27T16:11:31;7.70;;;2.83;;
4023;SDS011;2026;51.002;13.668;2024-01-27T16:16:34;13.37;;;3.60;;
4023;SDS011;2026;51.002;13.668;2024-01-27T16:21:39;11.13;;;3.40;;
4023;SDS011;2026;51.002;13.668;2024-01-27T16:26:42;13.20;;;3.10;;
4023;SDS011;2026;51.002;13.668;2024-01-27T16:31:45;13.40;;;4.03;;
4023;SDS011;2026;51.002;13.668;2024-01-27T16:36:49;10.07;;;4.27;;
4023;SDS011;2026;51.002;13.668;2024-01-27T16:41:52;11.50;;;4.57;;
4023;SDS011;2026;51.002;13.668;2024-01-27T16:46:55;9.17;;;5.27;;
4023;SDS011;2026;51.002;13.668;2024-01-27T16:51:59;14.20;;;4.30;;
4023;SDS011;2026;51.002;13.668;2024-01-27T16:57:03;6.73;;;2.90;;
4023;SDS011;2026;51.002;13.668;2024-01-27T17:02:07;8.97;;;4.03;;
4023;SDS011;2026;51.002;13.668;2024-01-27T17:07:11;8.63;;;3.90;;
4023;SDS011;2026;51.002;13.668;2024-01-27T17:12:14;17.03;;;5.20;;
4023;SDS011;2026;51.002;13.668;2024-01-27T17:17:17;12.53;;;4.03;;
4023;SDS011;2026;51.002;13.668;2024-01-27T17:22:22;14.60;;;4.13;;
4023;SDS011;2026;51.002;13.668;2024-01-27T17:27:25;8.03;;;3.17;;
4023;SDS011;2026;51.002;13.668;2024-01-27T17:32:28;10.17;;;4.30;;
4023;SDS011;2026;51.002;13.668;2024-01-27T17:37:33;9.07;;;4.03;;
4023;SDS011;2026;51.002;13.668;2024-01-27T17:42:38;12.87;;;4.17;;
4023;SDS011;2026;51.002;13.668;2024-01-27T17:47:41;9.17;;;3.60;;
4023;SDS011;2026;51.002;13.668;2024-01-27T17:52:47;8.40;;;3.90;;
4023;SDS011;2026;51.002;13.668;2024-01-27T17:57:50;10.40;;;3.83;;
4023;SDS011;2026;51.002;13.668;2024-01-27T18:02:53;24.87;;;9.70;;
4023;SDS011;2026;51.002;13.668;2024-01-27T18:07:58;8.83;;;3.27;;
4023;SDS011;2026;51.002;13.668;2024-01-27T18:13:01;15.23;;;4.27;;
4023;SDS011;2026;51.002;13.668;2024-01-27T18:18:04;6.97;;;3.47;;
4023;SDS011;2026;51.002;13.668;2024-01-27T18:23:09;14.27;;;4.50;;
4023;SDS011;2026;51.002;13.668;2024-01-27T18:28:12;18.90;;;3.50;;
4023;SDS011;2026;51.002;13.668;2024-01-27T18:33:15;13.63;;;3.37;;
4023;SDS011;2026;51.002;13.668;2024-01-27T18:38:22;15.60;;;4.30;;
4023;SDS011;2026;51.002;13.668;2024-01-27T18:43:26;9.03;;;3.93;;
4023;SDS011;2026;51.002;13.668;2024-01-27T18:48:29;18.70;;;4.73;;
4023;SDS011;2026;51.002;13.668;2024-01-27T18:53:33;10.83;;;4.10;;
4023;SDS011;2026;51.002;13.668;2024-01-27T18:58:36;15.43;;;5.27;;
4023;SDS011;2026;51.002;13.668;2024-01-27T19:03:39;15.00;;;7.67;;
4023;SDS011;2026;51.002;13.668;2024-01-27T19:08:44;15.83;;;5.20;;
4023;SDS011;2026;51.002;13.668;2024-01-27T19:13:47;17.83;;;6.10;;
4023;SDS011;2026;51.002;13.668;2024-01-27T19:18:50;18.10;;;9.07;;
4023;SDS011;2026;51.002;13.668;2024-01-27T19:23:55;14.70;;;8.37;;
4023;SDS011;2026;51.002;13.668;2024-01-27T19:28:58;20.20;;;6.43;;
4023;SDS011;2026;51.002;13.668;2024-01-27T19:34:01;14.90;;;4.90;;
4023;SDS011;2026;51.002;13.668;2024-01-27T19:39:06;10.87;;;3.80;;
4023;SDS011;2026;51.002;13.668;2024-01-27T19:44:09;8.10;;;4.40;;
4023;SDS011;2026;51.002;13.668;2024-01-27T19:49:12;18.33;;;4.23;;
4023;SDS011;2026;51.002;13.668;2024-01-27T19:54:17;11.80;;;3.67;;
4023;SDS011;2026;51.002;13.668;2024-01-27T19:59:20;10.63;;;3.93;;
4023;SDS011;2026;51.002;13.668;2024-01-27T20:04:23;10.30;;;3.90;;
4023;SDS011;2026;51.002;13.668;2024-01-27T20:09:27;24.70;;;11.90;;
4023;SDS011;2026;51.002;13.668;2024-01-27T20:14:31;18.83;;;6.30;;
4023;SDS011;2026;51.002;13.668;2024-01-27T20:19:34;13.77;;;6.43;;
4023;SDS011;2026;51.002;13.668;2024-01-27T20:24:39;6.50;;;4.10;;
4023;SDS011;2026;51.002;13.668;2024-01-27T20:29:42;13.80;;;6.60;;
4023;SDS011;2026;51.002;13.668;2024-01-27T20:34:44;7.93;;;3.43;;
4023;SDS011;2026;51.002;13.668;2024-01-27T20:39:49;11.50;;;4.50;;
4023;SDS011;2026;51.002;13.668;2024-01-27T20:44:52;14.10;;;4.13;;
4023;SDS011;2026;51.002;13.668;2024-01-27T20:49:55;10.87;;;4.30;;
4023;SDS011;2026;51.002;13.668;2024-01-27T20:55:00;7.60;;;3.40;;
4023;SDS011;2026;51.002;13.668;2024-01-27T21:00:04;9.33;;;4.00;;
4023;SDS011;2026;51.002;13.668;2024-01-27T21:05:08;14.00;;;5.10;;
4023;SDS011;2026;51.002;13.668;2024-01-27T21:10:13;13.80;;;4.67;;
4023;SDS011;2026;51.002;13.668;2024-01-27T21:15:16;10.13;;;4.00;;
4023;SDS011;2026;51.002;13.668;2024-01-27T21:20:19;10.27;;;4.23;;
4023;SDS011;2026;51.002;13.668;2024-01-27T21:25:23;18.50;;;5.47;;
4023;SDS011;2026;51.002;13.668;2024-01-27T21:30:26;13.67;;;4.00;;
4023;SDS011;2026;51.002;13.668;2024-01-27T21:35:31;11.90;;;3.80;;
4023;SDS011;2026;51.002;13.668;2024-01-27T21:40:36;13.40;;;4.60;;
4023;SDS011;2026;51.002;13.668;2024-01-27T21:45:43;15.30;;;5.00;;
4023;SDS011;2026;51.002;13.668;2024-01-27T21:50:46;11.07;;;4.43;;
4023;SDS011;2026;51.002;13.668;2024-01-27T21:55:50;10.73;;;6.17;;
4023;SDS011;2026;51.002;13.668;2024-01-27T22:00:53;13.77;;;6.07;;
4023;SDS011;2026;51.002;13.668;2024-01-27T22:05:56;15.40;;;8.23;;
4023;SDS011;2026;51.002;13.668;2024-01-27T22:11:06;24.87;;;12.20;;
4023;SDS011;2026;51.002;13.668;2024-01-27T22:16:09;20.10;;;7.83;;
4023;SDS011;2026;51.002;13.668;2024-01-27T22:21:12;15.30;;;5.70;;
4023;SDS011;2026;51.002;13.668;2024-01-27T22:26:16;21.33;;;7.27;;
4023;SDS011;2026;51.002;13.668;2024-01-27T22:31:19;22.03;;;7.60;;
4023;SDS011;2026;51.002;13.668;2024-01-27T22:36:22;18.93;;;6.67;;
4023;SDS011;2026;51.002;13.668;2024-01-27T22:41:27;16.27;;;7.43;;
4023;SDS011;2026;51.002;13.668;2024-01-27T22:46:30;14.63;;;7.20;;
4023;SDS011;2026;51.002;13.668;2024-01-27T22:51:33;16.27;;;6.43;;
4023;SDS011;2026;51.002;13.668;2024-01-27T22:56:37;16.60;;;6.70;;
4023;SDS011;2026;51.002;13.668;2024-01-27T23:01:41;9.67;;;6.27;;
4023;SDS011;2026;51.002;13.668;2024-01-27T23:06:44;10.60;;;4.50;;
4023;SDS011;2026;51.002;13.668;2024-01-27T23:11:48;13.80;;;5.53;;
4023;SDS011;2026;51.002;13.668;2024-01-27T23:16:51;23.10;;;9.97;;
4023;SDS011;2026;51.002;13.668;2024-01-27T23:21:54;19.73;;;11.53;;
4023;SDS011;2026;51.002;13.668;2024-01-27T23:26:58;19.43;;;8.57;;
4023;SDS011;2026;51.002;13.668;2024-01-27T23:32:01;15.37;;;9.30;;
4023;SDS011;2026;51.002;13.668;2024-01-27T23:37:04;16.10;;;8.67;;
4023;SDS011;2026;51.002;13.668;2024-01-27T23:42:09;21.83;;;12.57;;
4023;SDS011;2026;51.002;13.668;2024-01-27T23:47:12;19.90;;;12.30;;
4023;SDS011;2026;51.002;13.668;2024-01-27T23:52:15;22.67;;;11.80;;
4023;SDS011;2026;51.002;13.668;2024-01-27T23:57:20;17.60;;;9.93;;
